Avery, Iowa
Current Conditions -  °F | °C
As of 12:53 PM on Friday 31 Oct 2014 (Local Time) from KOTM Reporting Station
Light Rain Light Rain  
Wind Chill: 32°   Ceiling: Unl
Heat Index: 41°   Visibility: 10mi
Dew Point: 21°   Wind: 17mph
Humidity: 45%   Direction: 340°NNW
Pressure: 30.43"   Gusts: 26mph
Location:  41.0299°N, 92.7795°W
Report Text: KOTM 311753Z AUTO 34015G23KT 10SM -RA CLR 05/M06 A3043 RMK AO2 RAB13SNE13 SLP310 P0000 60000 T00501061 10050 21017 50001
Loading
Personal Weather Stations






























Interactive Weather Map
Tropical Storm Tracking
New forecast layout! Learn more

10-Day Weather Forecast

Advertisements
Track Severe Weather on mobile